createdAt,value
2023-04-11T07:28:01.122Z,7.13
2023-04-11T07:29:52.713Z,7.48
2023-04-11T07:31:45.209Z,7.32
2023-04-11T07:32:47.110Z,7.39
2023-04-11T07:33:48.662Z,7.51
2023-04-11T07:34:50.747Z,7.63
2023-04-11T07:35:52.143Z,7.69
2023-04-11T07:37:58.105Z,7.47
2023-04-11T07:39:00.066Z,7.63
2023-04-11T07:40:01.755Z,7.71
2023-04-11T07:41:04.244Z,7.99
2023-04-11T07:42:05.970Z,8.05
2023-04-11T07:43:07.354Z,8.18
2023-04-11T07:46:50.418Z,8.01
2023-04-11T07:47:51.870Z,8.33
2023-04-11T07:48:53.297Z,8.47
2023-04-11T07:49:54.677Z,8.39
2023-04-11T07:50:56.220Z,8.54
2023-04-11T07:51:57.691Z,8.44
2023-04-11T07:52:59.277Z,8.54
2023-04-11T07:54:01.009Z,8.88
2023-04-11T07:55:03.028Z,8.93
2023-04-11T07:56:05.017Z,9.22
2023-04-11T07:57:06.406Z,9.07
2023-04-11T07:58:08.267Z,9.09
2023-04-11T07:59:09.915Z,8.89
2023-04-11T08:00:19.631Z,9.08
2023-04-11T08:01:23.082Z,9.15
2023-04-11T08:02:24.644Z,9.26
2023-04-11T08:03:27.078Z,9.09
2023-04-11T08:04:36.206Z,8.90
2023-04-11T08:05:37.909Z,9.03
2023-04-11T08:06:39.417Z,8.90
2023-04-11T08:07:41.724Z,8.67
2023-04-11T08:08:43.312Z,8.53
2023-04-11T08:09:45.029Z,8.60
2023-04-11T08:10:46.453Z,8.62
2023-04-11T08:11:47.832Z,8.81
2023-04-11T08:12:49.773Z,8.83
2023-04-11T08:13:51.724Z,8.84
2023-04-11T08:14:53.092Z,8.93
2023-04-11T08:15:54.496Z,8.68
2023-04-11T08:16:55.949Z,8.43
2023-04-11T08:17:57.631Z,8.29
2023-04-11T08:18:59.105Z,8.34
2023-04-11T08:20:02.264Z,8.44
2023-04-11T08:21:04.044Z,8.45
2023-04-11T08:22:05.473Z,8.45
2023-04-11T08:23:08.538Z,8.39
2023-04-11T08:24:09.969Z,8.73
2023-04-11T08:25:12.585Z,8.53
2023-04-11T08:26:14.032Z,8.49
2023-04-11T08:27:15.600Z,8.43
2023-04-11T08:28:16.938Z,8.48
2023-04-11T08:29:18.499Z,8.70
2023-04-11T08:30:20.476Z,8.65
2023-04-11T08:31:23.284Z,8.82
2023-04-11T08:32:25.256Z,8.57
2023-04-11T08:33:27.437Z,8.95
2023-04-11T08:34:28.855Z,9.46
2023-04-11T08:35:30.280Z,9.48
2023-04-11T08:36:32.090Z,9.32
2023-04-11T08:37:33.750Z,9.26
2023-04-11T08:38:36.550Z,9.10
2023-04-11T08:39:38.113Z,8.94
2023-04-11T08:40:39.888Z,8.76
2023-04-11T08:41:42.160Z,8.86
2023-04-11T08:42:44.625Z,8.80
2023-04-11T08:43:48.044Z,8.94
2023-04-11T08:44:55.246Z,8.76
2023-04-11T08:45:57.064Z,8.87
2023-04-11T08:46:58.691Z,8.69
2023-04-11T08:48:00.166Z,8.48
2023-04-11T08:49:01.720Z,8.68
2023-04-11T08:50:04.273Z,8.81
2023-04-11T08:51:06.378Z,8.87
2023-04-11T08:52:08.044Z,8.92
2023-04-11T08:53:09.708Z,8.88
2023-04-11T08:54:12.090Z,9.01
2023-04-11T08:55:13.468Z,9.05
2023-04-11T08:56:16.960Z,8.93
2023-04-11T08:57:26.208Z,8.95
2023-04-11T08:58:27.812Z,9.14
2023-04-11T08:59:30.508Z,8.97
2023-04-11T09:00:32.624Z,8.90
2023-04-11T09:01:37.103Z,9.09
2023-04-11T09:02:57.426Z,9.35
2023-04-11T09:04:01.027Z,9.30
2023-04-11T09:05:02.443Z,9.29
2023-04-11T09:06:10.520Z,9.08
2023-04-11T09:07:12.609Z,9.11
2023-04-11T09:08:15.924Z,9.16
2023-04-11T09:09:30.018Z,8.92
2023-04-11T09:10:35.758Z,9.06
2023-04-11T09:11:51.985Z,9.17
2023-04-11T09:12:54.910Z,9.25
2023-04-11T09:14:09.977Z,9.47
2023-04-11T09:15:41.086Z,9.41
2023-04-11T09:17:04.254Z,9.43
2023-04-11T09:18:05.871Z,9.68
2023-04-11T09:19:23.386Z,9.24
2023-04-11T09:20:34.852Z,9.39
2023-04-11T09:21:48.893Z,9.41
2023-04-11T09:22:50.536Z,9.60
2023-04-11T09:23:52.530Z,9.90
2023-04-11T09:25:03.721Z,10.15
2023-04-11T09:26:09.322Z,10.15
2023-04-11T09:27:16.439Z,10.02
2023-04-11T09:28:17.960Z,9.91
2023-04-11T09:29:42.749Z,9.81
2023-04-11T09:30:55.270Z,9.90
2023-04-11T09:31:57.099Z,10.01
2023-04-11T09:32:58.686Z,9.85
2023-04-11T09:34:00.193Z,10.13
2023-04-11T09:35:24.042Z,10.52
2023-04-11T09:36:29.104Z,10.55
2023-04-11T09:37:44.983Z,10.57
2023-04-11T09:38:46.488Z,10.58
2023-04-11T09:39:58.180Z,10.50
2023-04-11T09:41:04.202Z,10.51
2023-04-11T09:42:27.800Z,10.25
2023-04-11T09:43:55.515Z,10.17
2023-04-11T09:44:57.314Z,10.05
2023-04-11T09:46:09.700Z,10.16
2023-04-11T09:47:11.132Z,9.86
2023-04-11T09:48:13.426Z,9.90
2023-04-11T09:49:15.014Z,9.92
2023-04-11T09:50:17.114Z,9.78
2023-04-11T09:51:34.413Z,10.02
2023-04-11T09:52:45.586Z,10.27
2023-04-11T09:53:47.111Z,10.05
2023-04-11T09:54:50.688Z,9.93
2023-04-11T09:55:52.206Z,9.73
2023-04-11T09:56:54.153Z,9.55
2023-04-11T09:57:55.570Z,9.50
2023-04-11T09:58:57.695Z,9.44
2023-04-11T10:00:14.471Z,9.45
2023-04-11T10:01:19.009Z,9.30
2023-04-11T10:02:20.785Z,8.95
2023-04-11T10:03:24.088Z,8.52
2023-04-11T10:04:28.002Z,8.38
2023-04-11T10:05:30.403Z,8.48
2023-04-11T10:06:38.939Z,8.34
2023-04-11T10:07:48.343Z,8.49
2023-04-11T10:08:51.344Z,8.53
2023-04-11T10:09:52.991Z,8.43
2023-04-11T10:10:56.758Z,8.62
2023-04-11T10:11:58.363Z,8.88
2023-04-11T10:12:59.889Z,8.94
2023-04-11T10:14:01.335Z,9.39
2023-04-11T10:15:09.211Z,9.34
2023-04-11T10:16:18.766Z,9.35
2023-04-11T10:17:23.669Z,9.78
2023-04-11T10:18:25.871Z,9.54
2023-04-11T10:19:27.436Z,9.44
2023-04-11T10:20:31.507Z,9.47
2023-04-11T10:21:32.887Z,9.67
2023-04-11T10:22:43.942Z,10.12
2023-04-11T10:24:07.484Z,10.60
2023-04-11T10:25:16.628Z,10.90
2023-04-11T10:26:18.146Z,10.93
2023-04-11T10:27:47.795Z,11.15
2023-04-11T10:28:49.205Z,11.42
2023-04-11T10:29:52.896Z,11.40
2023-04-11T10:31:04.818Z,11.46
2023-04-11T10:32:19.387Z,11.67
2023-04-11T10:33:21.555Z,11.38
2023-04-11T10:34:23.014Z,11.23
2023-04-11T10:35:24.917Z,11.15
2023-04-11T10:36:26.982Z,11.27
2023-04-11T10:37:34.949Z,11.40
2023-04-11T10:38:43.592Z,11.74
2023-04-11T10:39:53.974Z,12.07
2023-04-11T10:41:20.902Z,11.61
2023-04-11T10:42:31.869Z,11.77
2023-04-11T10:43:33.589Z,11.36
2023-04-11T10:44:35.054Z,11.08
2023-04-11T10:45:40.028Z,10.93
2023-04-11T10:46:46.638Z,11.15
2023-04-11T10:47:57.235Z,11.20
2023-04-11T10:49:03.576Z,11.65
2023-04-11T10:50:31.389Z,11.47
2023-04-11T10:51:34.089Z,11.27
2023-04-11T10:52:38.589Z,11.15
2023-04-11T10:53:40.307Z,10.80
2023-04-11T10:54:41.723Z,10.53
2023-04-11T10:55:48.780Z,10.52
2023-04-11T10:56:56.810Z,10.35
2023-04-11T10:58:09.340Z,10.67
2023-04-11T10:59:49.218Z,10.70
2023-04-11T11:00:53.752Z,10.66
2023-04-11T11:01:56.149Z,10.85
2023-04-11T11:02:58.170Z,10.89
2023-04-11T11:04:00.009Z,11.21
2023-04-11T11:05:02.126Z,11.84
2023-04-11T11:06:06.304Z,11.77
2023-04-11T11:07:13.122Z,12.14
2023-04-11T11:08:14.543Z,12.19
2023-04-11T11:09:28.603Z,12.07
2023-04-11T11:11:03.117Z,12.12
2023-04-11T11:12:11.522Z,11.52
2023-04-11T11:13:15.491Z,11.86
2023-04-11T11:14:29.239Z,11.72
2023-04-11T11:15:38.191Z,11.83
2023-04-11T11:16:40.872Z,11.84
2023-04-11T11:17:43.020Z,12.02
2023-04-11T11:18:46.817Z,12.17
2023-04-11T11:19:48.691Z,12.20
2023-04-11T11:20:55.015Z,12.02
2023-04-11T11:21:56.867Z,11.72
2023-04-11T11:23:06.087Z,11.43
2023-04-11T11:24:07.431Z,11.35
2023-04-11T11:25:09.390Z,11.41
2023-04-11T11:26:10.867Z,11.10
2023-04-11T11:27:23.112Z,10.85
2023-04-11T11:28:25.274Z,11.25
2023-04-11T11:29:37.850Z,11.42
2023-04-11T11:30:53.982Z,11.47
2023-04-11T11:31:57.762Z,11.35
2023-04-11T11:32:59.360Z,11.06
2023-04-11T11:34:18.434Z,10.92
2023-04-11T11:35:23.733Z,11.05
2023-04-11T11:36:26.372Z,11.31
2023-04-11T11:37:27.886Z,11.48
2023-04-11T11:38:30.546Z,11.49
2023-04-11T11:39:32.382Z,11.79
2023-04-11T11:40:33.905Z,11.37
2023-04-11T11:41:35.395Z,10.77
2023-04-11T11:42:36.971Z,10.80
2023-04-11T11:43:38.925Z,10.86
2023-04-11T11:44:40.434Z,10.84
2023-04-11T11:45:42.595Z,11.37
2023-04-11T11:47:12.302Z,11.22
2023-04-11T11:48:24.185Z,11.76
2023-04-11T11:49:25.665Z,12.22
2023-04-11T11:50:31.562Z,11.96
2023-04-11T11:51:43.008Z,11.56
2023-04-11T11:52:44.670Z,11.85
2023-04-11T11:54:04.688Z,11.65
2023-04-11T11:55:11.211Z,11.75
2023-04-11T11:56:14.211Z,11.73
2023-04-11T11:57:24.835Z,11.34
2023-04-11T11:58:27.411Z,11.33
2023-04-11T11:59:28.971Z,11.63
2023-04-11T12:00:34.693Z,11.62
2023-04-11T12:01:37.444Z,11.60
2023-04-11T12:02:40.786Z,11.47
2023-04-11T12:03:42.634Z,11.36
2023-04-11T12:04:44.236Z,11.20
2023-04-11T12:05:47.653Z,11.38
2023-04-11T12:06:49.100Z,11.26
2023-04-11T12:07:58.659Z,11.22
2023-04-11T12:09:18.010Z,11.09
2023-04-11T12:10:19.389Z,11.55
2023-04-11T12:11:21.269Z,10.92
2023-04-11T12:12:22.614Z,11.40
2023-04-11T12:13:27.797Z,11.43
2023-04-11T12:14:29.546Z,11.70
2023-04-11T12:15:35.692Z,11.80
2023-04-11T12:16:37.997Z,11.17
2023-04-11T12:17:40.313Z,11.38
2023-04-11T12:18:42.543Z,11.83
2023-04-11T12:19:43.936Z,11.82
2023-04-11T12:20:45.378Z,11.84
2023-04-11T12:21:46.738Z,11.89
2023-04-11T12:22:48.112Z,11.56
2023-04-11T12:23:49.464Z,11.47
2023-04-11T12:25:13.963Z,11.59
2023-04-11T12:26:15.701Z,11.38
2023-04-11T12:27:17.110Z,11.65
2023-04-11T12:28:18.867Z,11.42
2023-04-11T12:29:20.575Z,11.47
2023-04-11T12:30:21.988Z,11.87
2023-04-11T12:31:25.113Z,11.85
2023-04-11T12:32:27.534Z,11.67
2023-04-11T12:33:29.009Z,11.57
2023-04-11T12:34:30.550Z,11.16
2023-04-11T12:35:32.828Z,11.46
2023-04-11T12:36:36.673Z,11.60
2023-04-11T12:37:39.002Z,11.87
2023-04-11T12:38:41.170Z,11.72
2023-04-11T12:39:42.490Z,11.36
2023-04-11T12:40:43.987Z,11.15
2023-04-11T12:41:45.382Z,11.35
2023-04-11T12:42:56.458Z,11.40
2023-04-11T12:44:01.930Z,11.42
2023-04-11T12:45:04.247Z,11.44
2023-04-11T12:46:06.332Z,11.33
2023-04-11T12:47:07.712Z,11.39
2023-04-11T12:48:09.217Z,11.65
2023-04-11T12:49:10.633Z,11.80
2023-04-11T12:50:12.227Z,12.01
2023-04-11T12:51:13.666Z,12.16
2023-04-11T12:52:15.526Z,11.71
2023-04-11T12:53:16.926Z,11.81
2023-04-11T12:54:18.323Z,11.63
2023-04-11T12:55:19.768Z,11.67
2023-04-11T12:56:21.157Z,11.56
2023-04-11T12:57:22.679Z,11.63
2023-04-11T12:58:24.057Z,11.71
2023-04-11T12:59:26.518Z,12.01
2023-04-11T13:00:28.558Z,12.08
2023-04-11T13:01:29.986Z,12.43
2023-04-11T13:02:38.257Z,12.27
2023-04-11T13:03:44.196Z,12.49
2023-04-11T13:04:46.406Z,12.86
2023-04-11T13:05:47.845Z,12.76
2023-04-11T13:06:49.575Z,12.25
2023-04-11T13:07:52.060Z,12.01
2023-04-11T13:08:53.517Z,12.22
2023-04-11T13:09:55.082Z,12.45
2023-04-11T13:10:56.417Z,12.48
2023-04-11T13:11:58.881Z,12.86
2023-04-11T13:13:08.474Z,12.56
2023-04-11T13:14:18.862Z,12.88
2023-04-11T13:15:20.387Z,12.73
2023-04-11T13:16:21.860Z,12.55
2023-04-11T13:17:23.279Z,12.73
2023-04-11T13:18:24.902Z,12.65
2023-04-11T13:19:26.461Z,12.83
2023-04-11T13:20:27.853Z,12.58
2023-04-11T13:21:29.217Z,12.16
2023-04-11T13:22:30.859Z,12.25
2023-04-11T13:23:32.374Z,12.49
2023-04-11T13:24:33.859Z,12.50
2023-04-11T13:25:35.238Z,12.46
2023-04-11T13:26:36.747Z,12.34
2023-04-11T13:27:39.689Z,12.32
2023-04-11T13:28:41.310Z,11.89
2023-04-11T13:29:42.692Z,12.08
2023-04-11T13:30:44.166Z,12.28
2023-04-11T13:31:45.717Z,12.27
2023-04-11T13:32:47.120Z,12.12
2023-04-11T13:33:48.530Z,12.27
2023-04-11T13:34:50.011Z,12.06
2023-04-11T13:35:51.453Z,12.18
2023-04-11T13:36:52.947Z,12.19
2023-04-11T13:37:54.455Z,12.27
2023-04-11T13:38:57.237Z,12.60
2023-04-11T13:39:59.176Z,12.88
2023-04-11T13:41:00.647Z,12.94
2023-04-11T13:42:02.038Z,13.14
2023-04-11T13:43:03.852Z,12.65
2023-04-11T13:44:05.272Z,12.64
2023-04-11T13:45:07.238Z,12.54
2023-04-11T13:46:08.933Z,12.24
2023-04-11T13:47:10.354Z,11.96
2023-04-11T13:48:11.718Z,12.53
2023-04-11T13:49:13.524Z,12.97
2023-04-11T13:50:14.885Z,12.55
2023-04-11T13:51:16.374Z,12.89
2023-04-11T13:52:17.762Z,13.01
2023-04-11T13:53:19.101Z,13.20
2023-04-11T13:54:20.595Z,13.49
2023-04-11T13:55:23.360Z,14.06
2023-04-11T13:56:25.037Z,14.13
2023-04-11T13:57:28.412Z,13.46
2023-04-11T13:58:30.769Z,12.44
2023-04-11T13:59:32.115Z,12.04
2023-04-11T14:00:36.158Z,12.23
2023-04-11T14:01:37.863Z,12.66
2023-04-11T14:02:40.847Z,12.83
2023-04-11T14:03:43.045Z,12.86
2023-04-11T14:04:44.699Z,12.80
2023-04-11T14:05:46.180Z,12.30
2023-04-11T14:06:47.549Z,12.52
2023-04-11T14:07:49.533Z,12.87
2023-04-11T14:08:51.683Z,12.96
2023-04-11T14:09:53.162Z,12.67
2023-04-11T14:10:55.292Z,12.74
2023-04-11T14:11:56.841Z,12.89
2023-04-11T14:12:58.238Z,12.76
2023-04-11T14:13:59.567Z,12.93
2023-04-11T14:15:01.000Z,12.91
2023-04-11T14:16:08.546Z,12.62
2023-04-11T14:17:11.253Z,12.61
2023-04-11T14:18:12.742Z,12.64
2023-04-11T14:19:14.456Z,12.74
2023-04-11T14:20:15.929Z,12.93
2023-04-11T14:21:17.414Z,12.72
2023-04-11T14:22:18.894Z,12.75
2023-04-11T14:23:20.733Z,12.84
2023-04-11T14:24:22.325Z,13.36
2023-04-11T14:25:23.791Z,12.94
2023-04-11T14:26:25.639Z,12.77
2023-04-11T14:27:27.013Z,13.13
2023-04-11T14:28:28.597Z,13.17
2023-04-11T14:29:31.070Z,13.33
2023-04-11T14:30:32.568Z,12.92
2023-04-11T14:31:34.191Z,13.25
2023-04-11T14:32:35.983Z,13.09
2023-04-11T14:33:37.398Z,12.62
2023-04-11T14:34:38.828Z,12.55
2023-04-11T14:35:40.394Z,12.89
2023-04-11T14:36:41.829Z,12.85
2023-04-11T14:37:44.989Z,12.68
2023-04-11T14:38:46.444Z,13.03
2023-04-11T14:39:47.959Z,13.54
2023-04-11T14:40:49.381Z,13.66
2023-04-11T14:41:50.938Z,13.74
2023-04-11T14:42:52.358Z,13.55
2023-04-11T14:43:53.768Z,13.33
2023-04-11T14:44:55.149Z,13.30
2023-04-11T14:45:57.827Z,13.26
2023-04-11T14:46:59.283Z,12.99
2023-04-11T14:48:00.753Z,13.14
2023-04-11T14:49:02.524Z,13.15
2023-04-11T14:50:04.115Z,12.64
2023-04-11T14:51:05.974Z,12.54
2023-04-11T14:52:07.497Z,12.57
2023-04-11T14:53:09.470Z,12.47
2023-04-11T14:54:10.896Z,12.49
2023-04-11T14:55:12.411Z,12.64
2023-04-11T14:56:13.788Z,12.80
2023-04-11T14:57:15.621Z,13.15
2023-04-11T14:58:17.056Z,12.74
2023-04-11T14:59:18.555Z,12.75
2023-04-11T15:00:21.787Z,12.58
2023-04-11T15:01:23.380Z,12.53
2023-04-11T15:02:24.887Z,12.57
2023-04-11T15:03:26.598Z,12.53
2023-04-11T15:04:28.172Z,12.50
2023-04-11T15:05:29.919Z,12.76
2023-04-11T15:06:32.485Z,12.72
2023-04-11T15:07:33.890Z,12.99
2023-04-11T15:08:35.658Z,13.18
2023-04-11T15:09:36.984Z,12.98
2023-04-11T15:10:38.384Z,13.28
2023-04-11T15:11:39.989Z,13.49
2023-04-11T15:12:41.620Z,13.53
2023-04-11T15:13:43.068Z,13.60
2023-04-11T15:14:44.445Z,13.70
2023-04-11T15:15:45.926Z,13.57
2023-04-11T15:16:47.342Z,13.51
2023-04-11T15:18:09.765Z,13.93
2023-04-11T15:19:11.244Z,13.57
2023-04-11T15:20:14.607Z,13.46
2023-04-11T15:21:16.383Z,13.29
2023-04-11T15:22:17.902Z,12.85
2023-04-11T15:23:20.502Z,12.80
2023-04-11T15:24:22.134Z,12.90
2023-04-11T15:25:23.904Z,12.97
2023-04-11T15:26:25.686Z,13.26
2023-04-11T15:27:27.234Z,13.20
2023-04-11T15:28:36.321Z,13.44
2023-04-11T15:29:37.992Z,13.52
2023-04-11T15:30:47.516Z,13.45
2023-04-11T15:31:49.071Z,13.49
2023-04-11T15:32:50.534Z,13.37
2023-04-11T15:33:53.324Z,13.36
2023-04-11T15:34:55.319Z,13.32
2023-04-11T15:35:58.543Z,13.35
2023-04-11T15:37:01.152Z,13.71
2023-04-11T15:38:02.486Z,13.62
2023-04-11T15:39:05.052Z,13.68
2023-04-11T15:40:07.749Z,13.50
2023-04-11T15:41:09.158Z,13.34
2023-04-11T15:42:10.484Z,13.36
2023-04-11T15:43:11.905Z,13.13
2023-04-11T15:44:13.324Z,12.94
2023-04-11T15:45:14.721Z,13.03
2023-04-11T15:46:16.246Z,12.44
2023-04-11T15:47:18.274Z,12.48
2023-04-11T15:48:19.748Z,12.50
2023-04-11T15:49:21.254Z,12.69
2023-04-11T15:50:22.637Z,12.33
2023-04-11T15:51:24.632Z,12.39
2023-04-11T15:52:26.297Z,12.61
2023-04-11T15:53:27.677Z,12.64
2023-04-11T15:54:31.735Z,12.46
2023-04-11T15:55:33.450Z,12.57
2023-04-11T15:56:34.920Z,12.85
2023-04-11T15:57:36.514Z,13.02
2023-04-11T15:58:37.946Z,13.09
2023-04-11T15:59:41.339Z,13.06
2023-04-11T16:00:43.752Z,12.65
2023-04-11T16:01:46.100Z,12.27
2023-04-11T16:02:48.748Z,11.99
2023-04-11T16:03:51.965Z,11.98
2023-04-11T16:04:55.219Z,11.82
2023-04-11T16:06:00.154Z,11.82
2023-04-11T16:07:02.259Z,11.84
2023-04-11T16:08:04.819Z,12.15
2023-04-11T16:09:06.224Z,12.01
2023-04-11T16:10:08.379Z,11.71
2023-04-11T16:11:09.766Z,11.71
2023-04-11T16:12:11.135Z,11.64
2023-04-11T16:13:12.600Z,11.51
2023-04-11T16:14:14.054Z,11.38
2023-04-11T16:15:15.645Z,11.25
2023-04-11T16:16:17.077Z,11.12
2023-04-11T16:17:20.400Z,11.18
2023-04-11T16:18:21.762Z,11.17
2023-04-11T16:19:24.019Z,11.01
2023-04-11T16:20:25.667Z,11.05
2023-04-11T16:21:27.407Z,11.11
2023-04-11T16:22:28.806Z,11.11
2023-04-11T16:23:30.697Z,11.11
2023-04-11T16:24:32.082Z,11.09
2023-04-11T16:25:33.450Z,11.17
2023-04-11T16:26:35.988Z,11.28
2023-04-11T16:27:37.394Z,11.35
2023-04-11T16:28:38.789Z,11.39
2023-04-11T16:29:41.861Z,11.40
2023-04-11T16:30:43.189Z,11.35
2023-04-11T16:31:44.628Z,11.14
2023-04-11T16:32:46.111Z,11.27
2023-04-11T16:33:47.679Z,11.38
2023-04-11T16:34:50.965Z,11.48
2023-04-11T16:35:52.426Z,11.36
2023-04-11T16:36:53.801Z,11.44
2023-04-11T16:37:55.180Z,11.42
2023-04-11T16:38:56.606Z,11.56
2023-04-11T16:39:58.232Z,11.56
2023-04-11T16:41:03.375Z,11.44
2023-04-11T16:42:05.040Z,11.51
2023-04-11T16:43:06.489Z,11.48
2023-04-11T16:44:13.995Z,11.30
2023-04-11T16:45:15.654Z,11.30
2023-04-11T16:46:17.053Z,11.22
2023-04-11T16:47:20.271Z,11.22
2023-04-11T16:48:21.664Z,11.16
2023-04-11T16:49:23.054Z,11.10
2023-04-11T16:50:25.832Z,11.14
2023-04-11T16:51:27.332Z,11.22
2023-04-11T16:52:29.372Z,11.04
2023-04-11T16:53:30.946Z,11.01
2023-04-11T16:54:32.684Z,11.12
